sensor_id;sensor_type;location;lat;lon;timestamp;P1;durP1;ratioP1;P2;durP2;ratioP2
13291;SDS011;6714;53.056;8.690;2022-07-23T00:01:18;2.27;;;1.30;;
13291;SDS011;6714;53.056;8.690;2022-07-23T00:04:01;1.60;;;1.50;;
13291;SDS011;6714;53.056;8.690;2022-07-23T00:06:43;1.40;;;1.40;;
13291;SDS011;6714;53.056;8.690;2022-07-23T00:09:25;1.43;;;1.37;;
13291;SDS011;6714;53.056;8.690;2022-07-23T00:12:10;1.30;;;1.20;;
13291;SDS011;6714;53.056;8.690;2022-07-23T00:14:52;1.60;;;1.50;;
13291;SDS011;6714;53.056;8.690;2022-07-23T00:17:34;1.40;;;1.30;;
13291;SDS011;6714;53.056;8.690;2022-07-23T00:20:16;1.90;;;1.50;;
13291;SDS011;6714;53.056;8.690;2022-07-23T00:22:59;2.73;;;1.60;;
13291;SDS011;6714;53.056;8.690;2022-07-23T00:25:41;1.87;;;1.37;;
13291;SDS011;6714;53.056;8.690;2022-07-23T00:28:24;1.33;;;1.23;;
13291;SDS011;6714;53.056;8.690;2022-07-23T00:31:06;3.30;;;1.90;;
13291;SDS011;6714;53.056;8.690;2022-07-23T00:33:49;1.40;;;1.30;;
13291;SDS011;6714;53.056;8.690;2022-07-23T00:36:31;1.50;;;1.40;;
13291;SDS011;6714;53.056;8.690;2022-07-23T00:39:13;1.53;;;1.43;;
13291;SDS011;6714;53.056;8.690;2022-07-23T00:41:55;2.10;;;1.50;;
13291;SDS011;6714;53.056;8.690;2022-07-23T00:44:39;1.40;;;1.40;;
13291;SDS011;6714;53.056;8.690;2022-07-23T00:47:21;1.53;;;1.43;;
13291;SDS011;6714;53.056;8.690;2022-07-23T00:50:03;1.37;;;1.37;;
13291;SDS011;6714;53.056;8.690;2022-07-23T00:52:46;1.60;;;1.50;;
13291;SDS011;6714;53.056;8.690;2022-07-23T00:55:28;1.50;;;1.50;;
13291;SDS011;6714;53.056;8.690;2022-07-23T00:58:10;1.63;;;1.53;;
13291;SDS011;6714;53.056;8.690;2022-07-23T01:00:54;1.93;;;1.67;;
13291;SDS011;6714;53.056;8.690;2022-07-23T01:03:36;1.73;;;1.63;;
13291;SDS011;6714;53.056;8.690;2022-07-23T01:06:18;2.27;;;1.90;;
13291;SDS011;6714;53.056;8.690;2022-07-23T01:09:02;1.50;;;1.40;;
13291;SDS011;6714;53.056;8.690;2022-07-23T01:11:44;1.87;;;1.77;;
13291;SDS011;6714;53.056;8.690;2022-07-23T01:14:26;2.37;;;1.80;;
13291;SDS011;6714;53.056;8.690;2022-07-23T01:17:10;3.33;;;1.80;;
13291;SDS011;6714;53.056;8.690;2022-07-23T01:19:52;2.03;;;1.70;;
13291;SDS011;6714;53.056;8.690;2022-07-23T01:22:36;2.00;;;1.80;;
13291;SDS011;6714;53.056;8.690;2022-07-23T01:25:18;2.37;;;1.60;;
13291;SDS011;6714;53.056;8.690;2022-07-23T01:28:01;1.53;;;1.50;;
13291;SDS011;6714;53.056;8.690;2022-07-23T01:30:44;2.53;;;1.67;;
13291;SDS011;6714;53.056;8.690;2022-07-23T01:33:26;2.37;;;1.63;;
13291;SDS011;6714;53.056;8.690;2022-07-23T01:36:08;2.20;;;2.00;;
13291;SDS011;6714;53.056;8.690;2022-07-23T01:38:53;3.07;;;1.73;;
13291;SDS011;6714;53.056;8.690;2022-07-23T01:41:35;3.07;;;1.97;;
13291;SDS011;6714;53.056;8.690;2022-07-23T01:44:17;1.80;;;1.70;;
13291;SDS011;6714;53.056;8.690;2022-07-23T01:46:59;2.87;;;1.83;;
13291;SDS011;6714;53.056;8.690;2022-07-23T01:49:42;2.00;;;1.90;;
13291;SDS011;6714;53.056;8.690;2022-07-23T01:52:24;3.07;;;1.90;;
13291;SDS011;6714;53.056;8.690;2022-07-23T01:55:08;2.43;;;1.80;;
13291;SDS011;6714;53.056;8.690;2022-07-23T01:57:50;2.37;;;2.10;;
13291;SDS011;6714;53.056;8.690;2022-07-23T02:00:32;2.23;;;2.00;;
13291;SDS011;6714;53.056;8.690;2022-07-23T02:03:14;2.67;;;2.27;;
13291;SDS011;6714;53.056;8.690;2022-07-23T02:05:56;3.43;;;2.40;;
13291;SDS011;6714;53.056;8.690;2022-07-23T02:08:39;2.90;;;1.70;;
13291;SDS011;6714;53.056;8.690;2022-07-23T02:11:22;2.80;;;1.80;;
13291;SDS011;6714;53.056;8.690;2022-07-23T02:14:04;2.33;;;1.87;;
13291;SDS011;6714;53.056;8.690;2022-07-23T02:16:47;3.30;;;2.07;;
13291;SDS011;6714;53.056;8.690;2022-07-23T02:19:29;2.53;;;2.10;;
13291;SDS011;6714;53.056;8.690;2022-07-23T02:22:11;2.30;;;2.10;;
13291;SDS011;6714;53.056;8.690;2022-07-23T02:24:53;1.93;;;1.80;;
13291;SDS011;6714;53.056;8.690;2022-07-23T02:27:37;2.20;;;2.00;;
13291;SDS011;6714;53.056;8.690;2022-07-23T02:30:19;2.13;;;2.03;;
13291;SDS011;6714;53.056;8.690;2022-07-23T02:33:01;2.03;;;1.93;;
13291;SDS011;6714;53.056;8.690;2022-07-23T02:35:43;2.50;;;1.90;;
13291;SDS011;6714;53.056;8.690;2022-07-23T02:38:26;3.77;;;2.13;;
13291;SDS011;6714;53.056;8.690;2022-07-23T02:41:08;2.20;;;2.00;;
13291;SDS011;6714;53.056;8.690;2022-07-23T02:43:52;2.00;;;1.90;;
13291;SDS011;6714;53.056;8.690;2022-07-23T02:46:34;4.27;;;2.40;;
13291;SDS011;6714;53.056;8.690;2022-07-23T02:49:16;2.10;;;2.00;;
13291;SDS011;6714;53.056;8.690;2022-07-23T02:51:58;2.13;;;2.03;;
13291;SDS011;6714;53.056;8.690;2022-07-23T02:54:40;2.20;;;2.10;;
13291;SDS011;6714;53.056;8.690;2022-07-23T02:57:23;2.10;;;2.00;;
13291;SDS011;6714;53.056;8.690;2022-07-23T03:00:07;2.63;;;2.20;;
13291;SDS011;6714;53.056;8.690;2022-07-23T03:02:49;2.90;;;2.17;;
13291;SDS011;6714;53.056;8.690;2022-07-23T03:05:31;2.20;;;2.00;;
13291;SDS011;6714;53.056;8.690;2022-07-23T03:08:13;2.00;;;1.90;;
13291;SDS011;6714;53.056;8.690;2022-07-23T03:10:55;2.27;;;2.07;;
13291;SDS011;6714;53.056;8.690;2022-07-23T03:13:38;1.90;;;1.80;;
13291;SDS011;6714;53.056;8.690;2022-07-23T03:16:21;1.67;;;1.67;;
13291;SDS011;6714;53.056;8.690;2022-07-23T03:19:04;2.63;;;2.23;;
13291;SDS011;6714;53.056;8.690;2022-07-23T03:21:46;2.40;;;1.90;;
13291;SDS011;6714;53.056;8.690;2022-07-23T03:24:28;2.30;;;2.07;;
13291;SDS011;6714;53.056;8.690;2022-07-23T03:27:25;2.40;;;2.20;;
13291;SDS011;6714;53.056;8.690;2022-07-23T03:30:07;2.60;;;2.17;;
13291;SDS011;6714;53.056;8.690;2022-07-23T03:32:51;2.00;;;1.90;;
13291;SDS011;6714;53.056;8.690;2022-07-23T03:35:33;2.33;;;1.87;;
13291;SDS011;6714;53.056;8.690;2022-07-23T03:38:16;2.50;;;1.83;;
13291;SDS011;6714;53.056;8.690;2022-07-23T03:40:58;3.13;;;2.13;;
13291;SDS011;6714;53.056;8.690;2022-07-23T03:43:40;1.90;;;1.80;;
13291;SDS011;6714;53.056;8.690;2022-07-23T03:46:22;2.20;;;2.07;;
13291;SDS011;6714;53.056;8.690;2022-07-23T03:49:06;2.30;;;2.00;;
13291;SDS011;6714;53.056;8.690;2022-07-23T03:51:48;2.07;;;1.90;;
13291;SDS011;6714;53.056;8.690;2022-07-23T03:54:30;2.33;;;2.13;;
13291;SDS011;6714;53.056;8.690;2022-07-23T03:57:12;2.20;;;1.97;;
13291;SDS011;6714;53.056;8.690;2022-07-23T03:59:54;2.20;;;2.00;;
13291;SDS011;6714;53.056;8.690;2022-07-23T04:02:36;1.97;;;1.87;;
13291;SDS011;6714;53.056;8.690;2022-07-23T04:05:20;1.93;;;1.80;;
13291;SDS011;6714;53.056;8.690;2022-07-23T04:08:02;1.90;;;1.80;;
13291;SDS011;6714;53.056;8.690;2022-07-23T04:10:45;2.17;;;1.97;;
13291;SDS011;6714;53.056;8.690;2022-07-23T04:13:27;2.37;;;2.03;;
13291;SDS011;6714;53.056;8.690;2022-07-23T04:16:09;2.20;;;2.00;;
13291;SDS011;6714;53.056;8.690;2022-07-23T04:18:51;2.30;;;2.10;;
13291;SDS011;6714;53.056;8.690;2022-07-23T04:21:35;2.37;;;2.17;;
13291;SDS011;6714;53.056;8.690;2022-07-23T04:24:17;2.87;;;2.60;;
13291;SDS011;6714;53.056;8.690;2022-07-23T04:27:00;2.53;;;2.33;;
13291;SDS011;6714;53.056;8.690;2022-07-23T04:29:42;2.60;;;2.50;;
13291;SDS011;6714;53.056;8.690;2022-07-23T04:32:24;2.27;;;2.17;;
13291;SDS011;6714;53.056;8.690;2022-07-23T04:35:07;2.57;;;2.37;;
13291;SDS011;6714;53.056;8.690;2022-07-23T04:37:51;3.20;;;2.60;;
13291;SDS011;6714;53.056;8.690;2022-07-23T04:40:33;5.40;;;2.93;;
13291;SDS011;6714;53.056;8.690;2022-07-23T04:43:15;3.27;;;2.77;;
13291;SDS011;6714;53.056;8.690;2022-07-23T04:45:57;2.80;;;2.60;;
13291;SDS011;6714;53.056;8.690;2022-07-23T04:48:39;3.10;;;2.90;;
13291;SDS011;6714;53.056;8.690;2022-07-23T04:51:22;3.60;;;3.00;;
13291;SDS011;6714;53.056;8.690;2022-07-23T04:54:06;2.80;;;2.60;;
13291;SDS011;6714;53.056;8.690;2022-07-23T04:56:48;2.70;;;2.50;;
13291;SDS011;6714;53.056;8.690;2022-07-23T04:59:30;3.07;;;2.57;;
13291;SDS011;6714;53.056;8.690;2022-07-23T05:02:12;3.23;;;2.80;;
13291;SDS011;6714;53.056;8.690;2022-07-23T05:04:54;3.67;;;3.37;;
13291;SDS011;6714;53.056;8.690;2022-07-23T05:07:36;3.47;;;3.27;;
13291;SDS011;6714;53.056;8.690;2022-07-23T05:10:20;6.03;;;3.40;;
13291;SDS011;6714;53.056;8.690;2022-07-23T05:13:02;2.03;;;1.93;;
13291;SDS011;6714;53.056;8.690;2022-07-23T05:15:44;3.83;;;3.23;;
13291;SDS011;6714;53.056;8.690;2022-07-23T05:18:26;2.63;;;2.43;;
13291;SDS011;6714;53.056;8.690;2022-07-23T05:21:09;3.73;;;3.23;;
13291;SDS011;6714;53.056;8.690;2022-07-23T05:23:51;3.67;;;3.37;;
13291;SDS011;6714;53.056;8.690;2022-07-23T05:26:34;1.87;;;1.57;;
13291;SDS011;6714;53.056;8.690;2022-07-23T05:29:16;2.20;;;2.10;;
13291;SDS011;6714;53.056;8.690;2022-07-23T05:31:58;2.17;;;1.80;;
13291;SDS011;6714;53.056;8.690;2022-07-23T05:34:41;2.60;;;2.40;;
13291;SDS011;6714;53.056;8.690;2022-07-23T05:37:23;1.40;;;1.40;;
13291;SDS011;6714;53.056;8.690;2022-07-23T05:40:06;5.00;;;2.93;;
13291;SDS011;6714;53.056;8.690;2022-07-23T05:42:50;3.20;;;2.60;;
13291;SDS011;6714;53.056;8.690;2022-07-23T05:45:32;3.60;;;2.13;;
13291;SDS011;6714;53.056;8.690;2022-07-23T05:48:14;3.80;;;2.80;;
13291;SDS011;6714;53.056;8.690;2022-07-23T05:50:56;3.93;;;2.50;;
13291;SDS011;6714;53.056;8.690;2022-07-23T05:53:38;1.93;;;1.83;;
13291;SDS011;6714;53.056;8.690;2022-07-23T05:56:21;3.87;;;3.53;;
13291;SDS011;6714;53.056;8.690;2022-07-23T05:59:04;3.03;;;2.33;;
13291;SDS011;6714;53.056;8.690;2022-07-23T06:01:46;2.90;;;2.70;;
13291;SDS011;6714;53.056;8.690;2022-07-23T06:04:28;2.20;;;1.50;;
13291;SDS011;6714;53.056;8.690;2022-07-23T06:07:11;3.53;;;2.60;;
13291;SDS011;6714;53.056;8.690;2022-07-23T06:09:53;3.17;;;2.70;;
13291;SDS011;6714;53.056;8.690;2022-07-23T06:12:35;3.87;;;2.67;;
13291;SDS011;6714;53.056;8.690;2022-07-23T06:15:19;3.43;;;3.17;;
13291;SDS011;6714;53.056;8.690;2022-07-23T06:18:01;2.20;;;1.77;;
13291;SDS011;6714;53.056;8.690;2022-07-23T06:20:44;2.77;;;2.53;;
13291;SDS011;6714;53.056;8.690;2022-07-23T06:23:26;4.00;;;2.93;;
13291;SDS011;6714;53.056;8.690;2022-07-23T06:26:08;2.20;;;2.00;;
13291;SDS011;6714;53.056;8.690;2022-07-23T06:28:50;2.97;;;2.40;;
13291;SDS011;6714;53.056;8.690;2022-07-23T06:31:34;3.77;;;2.13;;
13291;SDS011;6714;53.056;8.690;2022-07-23T06:34:16;4.60;;;2.20;;
13291;SDS011;6714;53.056;8.690;2022-07-23T06:36:58;2.00;;;1.83;;
13291;SDS011;6714;53.056;8.690;2022-07-23T06:39:40;2.60;;;2.10;;
13291;SDS011;6714;53.056;8.690;2022-07-23T06:42:23;1.90;;;1.73;;
13291;SDS011;6714;53.056;8.690;2022-07-23T06:45:05;3.63;;;2.13;;
13291;SDS011;6714;53.056;8.690;2022-07-23T06:47:49;2.90;;;2.13;;
13291;SDS011;6714;53.056;8.690;2022-07-23T06:50:31;2.13;;;1.90;;
13291;SDS011;6714;53.056;8.690;2022-07-23T06:53:14;1.07;;;1.07;;
13291;SDS011;6714;53.056;8.690;2022-07-23T06:55:56;1.00;;;1.00;;
13291;SDS011;6714;53.056;8.690;2022-07-23T06:58:38;2.37;;;1.43;;
13291;SDS011;6714;53.056;8.690;2022-07-23T07:01:20;1.40;;;1.30;;
13291;SDS011;6714;53.056;8.690;2022-07-23T07:04:04;1.60;;;1.37;;
13291;SDS011;6714;53.056;8.690;2022-07-23T07:06:47;1.87;;;1.23;;
13291;SDS011;6714;53.056;8.690;2022-07-23T07:09:30;1.13;;;1.10;;
13291;SDS011;6714;53.056;8.690;2022-07-23T07:12:12;2.40;;;1.30;;
13291;SDS011;6714;53.056;8.690;2022-07-23T07:14:55;1.53;;;1.43;;
13291;SDS011;6714;53.056;8.690;2022-07-23T07:17:37;1.63;;;1.40;;
13291;SDS011;6714;53.056;8.690;2022-07-23T07:20:21;1.30;;;1.10;;
13291;SDS011;6714;53.056;8.690;2022-07-23T07:23:04;1.23;;;1.07;;
13291;SDS011;6714;53.056;8.690;2022-07-23T07:25:46;2.40;;;1.30;;
13291;SDS011;6714;53.056;8.690;2022-07-23T07:28:28;1.90;;;1.13;;
13291;SDS011;6714;53.056;8.690;2022-07-23T07:31:10;2.10;;;1.37;;
13291;SDS011;6714;53.056;8.690;2022-07-23T07:33:53;2.37;;;1.23;;
13291;SDS011;6714;53.056;8.690;2022-07-23T07:36:38;1.30;;;1.20;;
13291;SDS011;6714;53.056;8.690;2022-07-23T07:39:20;1.60;;;1.30;;
13291;SDS011;6714;53.056;8.690;2022-07-23T07:42:02;2.07;;;1.10;;
13291;SDS011;6714;53.056;8.690;2022-07-23T07:44:44;1.00;;;1.00;;
13291;SDS011;6714;53.056;8.690;2022-07-23T07:47:27;2.57;;;1.50;;
13291;SDS011;6714;53.056;8.690;2022-07-23T07:50:09;1.27;;;0.97;;
13291;SDS011;6714;53.056;8.690;2022-07-23T07:52:53;1.27;;;1.17;;
13291;SDS011;6714;53.056;8.690;2022-07-23T07:55:35;1.73;;;1.53;;
13291;SDS011;6714;53.056;8.690;2022-07-23T07:58:17;1.57;;;1.30;;
13291;SDS011;6714;53.056;8.690;2022-07-23T08:01:00;1.30;;;1.20;;
13291;SDS011;6714;53.056;8.690;2022-07-23T08:03:42;1.40;;;1.30;;
13291;SDS011;6714;53.056;8.690;2022-07-23T08:06:24;1.13;;;1.03;;
13291;SDS011;6714;53.056;8.690;2022-07-23T08:09:08;0.80;;;0.80;;
13291;SDS011;6714;53.056;8.690;2022-07-23T08:11:50;1.20;;;1.20;;
13291;SDS011;6714;53.056;8.690;2022-07-23T08:14:33;1.97;;;1.07;;
13291;SDS011;6714;53.056;8.690;2022-07-23T08:17:15;1.00;;;1.00;;
13291;SDS011;6714;53.056;8.690;2022-07-23T08:19:57;1.57;;;1.30;;
13291;SDS011;6714;53.056;8.690;2022-07-23T08:22:46;2.47;;;1.60;;
13291;SDS011;6714;53.056;8.690;2022-07-23T08:25:31;1.20;;;1.10;;
13291;SDS011;6714;53.056;8.690;2022-07-23T08:28:13;1.20;;;1.10;;
13291;SDS011;6714;53.056;8.690;2022-07-23T08:30:56;2.10;;;1.03;;
13291;SDS011;6714;53.056;8.690;2022-07-23T08:33:38;0.97;;;0.90;;
13291;SDS011;6714;53.056;8.690;2022-07-23T08:36:20;0.83;;;0.83;;
13291;SDS011;6714;53.056;8.690;2022-07-23T08:39:02;1.10;;;0.93;;
13291;SDS011;6714;53.056;8.690;2022-07-23T08:41:46;1.13;;;1.03;;
13291;SDS011;6714;53.056;8.690;2022-07-23T08:44:28;0.70;;;0.70;;
13291;SDS011;6714;53.056;8.690;2022-07-23T08:47:10;1.07;;;0.90;;
13291;SDS011;6714;53.056;8.690;2022-07-23T08:49:52;0.90;;;0.90;;
13291;SDS011;6714;53.056;8.690;2022-07-23T08:52:35;0.80;;;0.80;;
13291;SDS011;6714;53.056;8.690;2022-07-23T08:55:18;0.90;;;0.90;;
13291;SDS011;6714;53.056;8.690;2022-07-23T08:58:02;2.50;;;1.03;;
13291;SDS011;6714;53.056;8.690;2022-07-23T09:00:44;0.90;;;0.90;;
13291;SDS011;6714;53.056;8.690;2022-07-23T09:03:27;1.07;;;0.80;;
13291;SDS011;6714;53.056;8.690;2022-07-23T09:06:10;1.13;;;1.00;;
13291;SDS011;6714;53.056;8.690;2022-07-23T09:08:52;0.97;;;0.90;;
13291;SDS011;6714;53.056;8.690;2022-07-23T09:11:34;0.80;;;0.80;;
13291;SDS011;6714;53.056;8.690;2022-07-23T09:14:18;0.80;;;0.80;;
13291;SDS011;6714;53.056;8.690;2022-07-23T09:17:17;1.20;;;1.10;;
13291;SDS011;6714;53.056;8.690;2022-07-23T09:20:07;1.00;;;0.90;;
13291;SDS011;6714;53.056;8.690;2022-07-23T09:22:49;1.03;;;0.60;;
13291;SDS011;6714;53.056;8.690;2022-07-23T09:25:31;1.03;;;0.77;;
13291;SDS011;6714;53.056;8.690;2022-07-23T09:28:14;0.70;;;0.70;;
13291;SDS011;6714;53.056;8.690;2022-07-23T09:30:57;0.70;;;0.70;;
13291;SDS011;6714;53.056;8.690;2022-07-23T09:33:40;0.83;;;0.70;;
13291;SDS011;6714;53.056;8.690;2022-07-23T09:36:31;0.60;;;0.60;;
13291;SDS011;6714;53.056;8.690;2022-07-23T09:39:14;1.87;;;0.80;;
13291;SDS011;6714;53.056;8.690;2022-07-23T09:41:57;0.73;;;0.60;;
13291;SDS011;6714;53.056;8.690;2022-07-23T09:44:40;0.60;;;0.60;;
13291;SDS011;6714;53.056;8.690;2022-07-23T09:47:25;0.63;;;0.63;;
13291;SDS011;6714;53.056;8.690;2022-07-23T09:50:08;0.73;;;0.70;;
13291;SDS011;6714;53.056;8.690;2022-07-23T09:52:53;0.50;;;0.50;;
13291;SDS011;6714;53.056;8.690;2022-07-23T09:55:35;0.60;;;0.60;;
13291;SDS011;6714;53.056;8.690;2022-07-23T09:58:18;0.60;;;0.60;;
13291;SDS011;6714;53.056;8.690;2022-07-23T10:01:02;0.60;;;0.60;;
13291;SDS011;6714;53.056;8.690;2022-07-23T10:03:46;0.50;;;0.50;;
13291;SDS011;6714;53.056;8.690;2022-07-23T10:06:28;0.52;;;0.50;;
13291;SDS011;6714;53.056;8.690;2022-07-23T10:09:11;0.68;;;0.68;;
13291;SDS011;6714;53.056;8.690;2022-07-23T10:11:55;0.47;;;0.47;;
13291;SDS011;6714;53.056;8.690;2022-07-23T10:14:40;0.50;;;0.50;;
13291;SDS011;6714;53.056;8.690;2022-07-23T10:17:22;0.60;;;0.60;;
13291;SDS011;6714;53.056;8.690;2022-07-23T10:20:06;0.40;;;0.40;;
13291;SDS011;6714;53.056;8.690;2022-07-23T10:22:50;0.63;;;0.40;;
13291;SDS011;6714;53.056;8.690;2022-07-23T10:25:36;0.60;;;0.60;;
13291;SDS011;6714;53.056;8.690;2022-07-23T10:28:25;0.40;;;0.40;;
13291;SDS011;6714;53.056;8.690;2022-07-23T10:31:14;0.47;;;0.47;;
13291;SDS011;6714;53.056;8.690;2022-07-23T10:34:02;0.55;;;0.50;;
13291;SDS011;6714;53.056;8.690;2022-07-23T10:36:49;0.60;;;0.60;;
13291;SDS011;6714;53.056;8.690;2022-07-23T10:39:34;2.33;;;0.68;;
13291;SDS011;6714;53.056;8.690;2022-07-23T10:42:17;0.65;;;0.50;;
13291;SDS011;6714;53.056;8.690;2022-07-23T10:44:59;1.13;;;0.60;;
13291;SDS011;6714;53.056;8.690;2022-07-23T10:47:41;0.40;;;0.40;;
13291;SDS011;6714;53.056;8.690;2022-07-23T10:50:24;0.40;;;0.40;;
13291;SDS011;6714;53.056;8.690;2022-07-23T10:53:10;0.50;;;0.50;;
13291;SDS011;6714;53.056;8.690;2022-07-23T10:55:53;0.52;;;0.52;;
13291;SDS011;6714;53.056;8.690;2022-07-23T11:01:36;0.68;;;0.40;;
13291;SDS011;6714;53.056;8.690;2022-07-23T11:04:18;0.65;;;0.52;;
13291;SDS011;6714;53.056;8.690;2022-07-23T11:07:07;0.40;;;0.40;;
13291;SDS011;6714;53.056;8.690;2022-07-23T11:09:53;0.45;;;0.45;;
13291;SDS011;6714;53.056;8.690;2022-07-23T11:12:35;1.00;;;0.50;;
13291;SDS011;6714;53.056;8.690;2022-07-23T11:15:17;0.40;;;0.40;;
13291;SDS011;6714;53.056;8.690;2022-07-23T11:17:59;0.60;;;0.60;;
13291;SDS011;6714;53.056;8.690;2022-07-23T11:20:42;0.38;;;0.38;;
13291;SDS011;6714;53.056;8.690;2022-07-23T11:23:24;0.40;;;0.40;;
13291;SDS011;6714;53.056;8.690;2022-07-23T11:32:27;0.50;;;0.50;;
13291;SDS011;6714;53.056;8.690;2022-07-23T11:35:26;0.28;;;0.28;;
13291;SDS011;6714;53.056;8.690;2022-07-23T11:38:12;0.45;;;0.45;;
13291;SDS011;6714;53.056;8.690;2022-07-23T11:40:55;0.43;;;0.40;;
13291;SDS011;6714;53.056;8.690;2022-07-23T11:43:38;0.60;;;0.60;;
13291;SDS011;6714;53.056;8.690;2022-07-23T11:46:20;0.50;;;0.50;;
13291;SDS011;6714;53.056;8.690;2022-07-23T11:49:03;0.30;;;0.30;;
13291;SDS011;6714;53.056;8.690;2022-07-23T11:51:45;0.40;;;0.40;;
13291;SDS011;6714;53.056;8.690;2022-07-23T11:54:28;1.05;;;0.60;;
13291;SDS011;6714;53.056;8.690;2022-07-23T11:57:10;0.50;;;0.50;;
13291;SDS011;6714;53.056;8.690;2022-07-23T11:59:53;0.30;;;0.30;;
13291;SDS011;6714;53.056;8.690;2022-07-23T12:02:35;0.50;;;0.50;;
13291;SDS011;6714;53.056;8.690;2022-07-23T12:05:19;0.38;;;0.38;;
13291;SDS011;6714;53.056;8.690;2022-07-23T12:08:03;0.55;;;0.50;;
13291;SDS011;6714;53.056;8.690;2022-07-23T12:10:46;1.02;;;0.60;;
13291;SDS011;6714;53.056;8.690;2022-07-23T12:13:28;0.45;;;0.45;;
13291;SDS011;6714;53.056;8.690;2022-07-23T12:16:10;0.50;;;0.50;;
13291;SDS011;6714;53.056;8.690;2022-07-23T12:18:52;0.60;;;0.60;;
13291;SDS011;6714;53.056;8.690;2022-07-23T12:21:37;1.02;;;0.50;;
13291;SDS011;6714;53.056;8.690;2022-07-23T12:24:19;0.50;;;0.50;;
13291;SDS011;6714;53.056;8.690;2022-07-23T12:27:07;0.45;;;0.40;;
13291;SDS011;6714;53.056;8.690;2022-07-23T12:29:50;0.70;;;0.60;;
13291;SDS011;6714;53.056;8.690;2022-07-23T12:32:32;1.27;;;0.40;;
13291;SDS011;6714;53.056;8.690;2022-07-23T12:35:14;0.60;;;0.60;;
13291;SDS011;6714;53.056;8.690;2022-07-23T12:38:00;0.47;;;0.47;;
13291;SDS011;6714;53.056;8.690;2022-07-23T12:40:44;0.38;;;0.38;;
13291;SDS011;6714;53.056;8.690;2022-07-23T12:43:27;0.50;;;0.43;;
13291;SDS011;6714;53.056;8.690;2022-07-23T12:46:11;0.50;;;0.50;;
13291;SDS011;6714;53.056;8.690;2022-07-23T12:48:54;0.40;;;0.40;;
13291;SDS011;6714;53.056;8.690;2022-07-23T12:51:36;0.40;;;0.40;;
13291;SDS011;6714;53.056;8.690;2022-07-23T12:54:27;0.38;;;0.38;;
13291;SDS011;6714;53.056;8.690;2022-07-23T12:57:09;0.50;;;0.50;;
13291;SDS011;6714;53.056;8.690;2022-07-23T12:59:51;1.40;;;0.60;;
13291;SDS011;6714;53.056;8.690;2022-07-23T13:02:44;0.30;;;0.30;;
13291;SDS011;6714;53.056;8.690;2022-07-23T13:05:26;0.63;;;0.52;;
13291;SDS011;6714;53.056;8.690;2022-07-23T13:08:08;0.38;;;0.35;;
13291;SDS011;6714;53.056;8.690;2022-07-23T13:10:52;0.30;;;0.30;;
13291;SDS011;6714;53.056;8.690;2022-07-23T13:13:35;0.55;;;0.55;;
13291;SDS011;6714;53.056;8.690;2022-07-23T13:16:17;1.77;;;0.50;;
13291;SDS011;6714;53.056;8.690;2022-07-23T13:18:59;0.40;;;0.40;;
13291;SDS011;6714;53.056;8.690;2022-07-23T13:21:42;0.60;;;0.60;;
13291;SDS011;6714;53.056;8.690;2022-07-23T13:24:24;0.60;;;0.60;;
13291;SDS011;6714;53.056;8.690;2022-07-23T13:27:08;0.40;;;0.40;;
13291;SDS011;6714;53.056;8.690;2022-07-23T13:29:50;0.50;;;0.50;;
13291;SDS011;6714;53.056;8.690;2022-07-23T13:32:32;0.50;;;0.40;;
13291;SDS011;6714;53.056;8.690;2022-07-23T13:35:14;0.60;;;0.60;;
13291;SDS011;6714;53.056;8.690;2022-07-23T13:37:57;0.40;;;0.38;;
13291;SDS011;6714;53.056;8.690;2022-07-23T13:40:40;0.38;;;0.38;;
13291;SDS011;6714;53.056;8.690;2022-07-23T13:43:24;0.43;;;0.43;;
13291;SDS011;6714;53.056;8.690;2022-07-23T13:46:07;0.60;;;0.60;;
13291;SDS011;6714;53.056;8.690;2022-07-23T13:48:49;0.47;;;0.47;;
13291;SDS011;6714;53.056;8.690;2022-07-23T13:51:31;0.38;;;0.38;;
13291;SDS011;6714;53.056;8.690;2022-07-23T13:54:13;0.43;;;0.43;;
13291;SDS011;6714;53.056;8.690;2022-07-23T13:56:56;0.88;;;0.40;;
13291;SDS011;6714;53.056;8.690;2022-07-23T13:59:39;0.50;;;0.50;;
13291;SDS011;6714;53.056;8.690;2022-07-23T14:02:21;0.40;;;0.40;;
13291;SDS011;6714;53.056;8.690;2022-07-23T14:05:04;0.63;;;0.50;;
13291;SDS011;6714;53.056;8.690;2022-07-23T14:07:46;1.27;;;0.57;;
13291;SDS011;6714;53.056;8.690;2022-07-23T14:10:29;0.68;;;0.43;;
13291;SDS011;6714;53.056;8.690;2022-07-23T14:13:12;1.10;;;0.50;;
13291;SDS011;6714;53.056;8.690;2022-07-23T14:15:55;0.60;;;0.60;;
13291;SDS011;6714;53.056;8.690;2022-07-23T14:18:38;0.85;;;0.40;;
13291;SDS011;6714;53.056;8.690;2022-07-23T14:21:20;0.50;;;0.50;;
13291;SDS011;6714;53.056;8.690;2022-07-23T14:24:02;0.50;;;0.50;;
13291;SDS011;6714;53.056;8.690;2022-07-23T14:26:44;0.55;;;0.50;;
13291;SDS011;6714;53.056;8.690;2022-07-23T14:29:27;0.50;;;0.50;;
13291;SDS011;6714;53.056;8.690;2022-07-23T14:32:11;0.40;;;0.40;;
13291;SDS011;6714;53.056;8.690;2022-07-23T14:34:53;0.80;;;0.80;;
13291;SDS011;6714;53.056;8.690;2022-07-23T14:37:35;0.50;;;0.50;;
13291;SDS011;6714;53.056;8.690;2022-07-23T14:40:18;1.52;;;0.80;;
13291;SDS011;6714;53.056;8.690;2022-07-23T14:43:00;0.40;;;0.40;;
13291;SDS011;6714;53.056;8.690;2022-07-23T14:45:42;0.40;;;0.40;;
13291;SDS011;6714;53.056;8.690;2022-07-23T14:48:26;0.95;;;0.70;;
13291;SDS011;6714;53.056;8.690;2022-07-23T14:51:08;0.60;;;0.60;;
13291;SDS011;6714;53.056;8.690;2022-07-23T14:53:50;0.50;;;0.50;;
13291;SDS011;6714;53.056;8.690;2022-07-23T14:56:33;0.52;;;0.52;;
13291;SDS011;6714;53.056;8.690;2022-07-23T14:59:16;0.82;;;0.60;;
13291;SDS011;6714;53.056;8.690;2022-07-23T15:01:58;1.20;;;0.57;;
13291;SDS011;6714;53.056;8.690;2022-07-23T15:04:42;0.70;;;0.70;;
13291;SDS011;6714;53.056;8.690;2022-07-23T15:07:24;1.08;;;0.65;;
13291;SDS011;6714;53.056;8.690;2022-07-23T15:10:06;0.80;;;0.80;;
13291;SDS011;6714;53.056;8.690;2022-07-23T15:12:49;1.08;;;1.08;;
13291;SDS011;6714;53.056;8.690;2022-07-23T15:15:31;0.85;;;0.52;;
13291;SDS011;6714;53.056;8.690;2022-07-23T15:18:13;0.95;;;0.80;;
13291;SDS011;6714;53.056;8.690;2022-07-23T15:20:57;0.50;;;0.50;;
13291;SDS011;6714;53.056;8.690;2022-07-23T15:23:41;0.82;;;0.60;;
13291;SDS011;6714;53.056;8.690;2022-07-23T15:26:23;0.60;;;0.60;;
13291;SDS011;6714;53.056;8.690;2022-07-23T15:29:05;0.60;;;0.60;;
13291;SDS011;6714;53.056;8.690;2022-07-23T15:31:47;0.75;;;0.70;;
13291;SDS011;6714;53.056;8.690;2022-07-23T15:34:30;1.55;;;0.70;;
13291;SDS011;6714;53.056;8.690;2022-07-23T15:37:13;0.60;;;0.60;;
13291;SDS011;6714;53.056;8.690;2022-07-23T15:39:55;0.77;;;0.77;;
13291;SDS011;6714;53.056;8.690;2022-07-23T15:42:37;0.63;;;0.63;;
13291;SDS011;6714;53.056;8.690;2022-07-23T15:45:20;0.73;;;0.70;;
13291;SDS011;6714;53.056;8.690;2022-07-23T15:48:02;1.10;;;0.70;;
13291;SDS011;6714;53.056;8.690;2022-07-23T15:50:44;0.70;;;0.70;;
13291;SDS011;6714;53.056;8.690;2022-07-23T15:53:28;0.80;;;0.80;;
13291;SDS011;6714;53.056;8.690;2022-07-23T15:56:10;0.50;;;0.50;;
13291;SDS011;6714;53.056;8.690;2022-07-23T15:58:52;0.75;;;0.75;;
13291;SDS011;6714;53.056;8.690;2022-07-23T16:01:34;0.50;;;0.50;;
13291;SDS011;6714;53.056;8.690;2022-07-23T16:04:16;0.82;;;0.82;;
13291;SDS011;6714;53.056;8.690;2022-07-23T16:06:59;0.68;;;0.68;;
13291;SDS011;6714;53.056;8.690;2022-07-23T16:09:42;0.77;;;0.77;;
13291;SDS011;6714;53.056;8.690;2022-07-23T16:12:24;0.68;;;0.68;;
13291;SDS011;6714;53.056;8.690;2022-07-23T16:15:07;0.90;;;0.90;;
13291;SDS011;6714;53.056;8.690;2022-07-23T16:17:49;0.60;;;0.60;;
13291;SDS011;6714;53.056;8.690;2022-07-23T16:20:31;0.90;;;0.90;;
13291;SDS011;6714;53.056;8.690;2022-07-23T16:23:14;1.30;;;0.70;;
13291;SDS011;6714;53.056;8.690;2022-07-23T16:25:57;0.60;;;0.60;;
13291;SDS011;6714;53.056;8.690;2022-07-23T16:28:39;1.33;;;0.85;;
13291;SDS011;6714;53.056;8.690;2022-07-23T16:31:22;4.40;;;1.15;;
13291;SDS011;6714;53.056;8.690;2022-07-23T16:34:06;2.08;;;0.93;;
13291;SDS011;6714;53.056;8.690;2022-07-23T16:36:48;1.38;;;0.80;;
13291;SDS011;6714;53.056;8.690;2022-07-23T16:39:30;2.15;;;1.05;;
13291;SDS011;6714;53.056;8.690;2022-07-23T16:42:14;1.17;;;1.08;;
13291;SDS011;6714;53.056;8.690;2022-07-23T16:44:56;1.13;;;1.02;;